createdAt,value
2022-08-28T00:02:46.591Z,7.32
2022-08-28T00:05:34.779Z,8.02
2022-08-28T00:08:22.009Z,7.65
2022-08-28T00:11:09.377Z,7.95
2022-08-28T00:13:56.773Z,7.68
2022-08-28T00:16:45.692Z,7.32
2022-08-28T00:19:38.462Z,7.68
2022-08-28T00:22:25.671Z,7.53
2022-08-28T00:25:14.403Z,7.18
2022-08-28T00:28:10.475Z,8.63
2022-08-28T00:31:00.307Z,7.60
2022-08-28T00:33:48.817Z,6.55
2022-08-28T00:36:35.914Z,6.93
2022-08-28T00:39:23.035Z,6.85
2022-08-28T00:42:10.786Z,5.90
2022-08-28T00:44:58.128Z,6.10
2022-08-28T00:47:45.713Z,6.28
2022-08-28T00:51:00.297Z,5.30
2022-08-28T00:53:46.926Z,5.15
2022-08-28T00:56:35.018Z,6.53
2022-08-28T00:59:24.357Z,5.25
2022-08-28T01:02:11.987Z,5.05
2022-08-28T01:04:59.504Z,5.13
2022-08-28T01:07:48.750Z,5.03
2022-08-28T01:10:36.129Z,4.72
2022-08-28T01:13:26.779Z,4.93
2022-08-28T01:16:15.651Z,4.63
2022-08-28T01:19:05.173Z,4.43
2022-08-28T01:21:56.550Z,4.47
2022-08-28T01:24:46.168Z,4.72
2022-08-28T01:27:33.195Z,4.60
2022-08-28T01:30:23.053Z,4.55
2022-08-28T01:33:10.395Z,5.13
2022-08-28T01:35:59.285Z,5.35
2022-08-28T01:38:50.154Z,5.55
2022-08-28T01:41:41.850Z,5.00
2022-08-28T01:44:29.454Z,6.40
2022-08-28T01:47:17.754Z,6.60
2022-08-28T01:50:05.837Z,7.32
2022-08-28T01:52:53.210Z,7.80
2022-08-28T01:55:40.499Z,7.07
2022-08-28T01:58:30.229Z,7.70
2022-08-28T02:01:20.577Z,7.80
2022-08-28T02:04:07.953Z,8.45
2022-08-28T02:06:55.973Z,8.25
2022-08-28T02:09:43.281Z,8.68
2022-08-28T02:12:30.967Z,8.27
2022-08-28T02:15:20.703Z,8.93
2022-08-28T02:18:11.963Z,7.53
2022-08-28T02:20:59.361Z,8.63
2022-08-28T02:23:46.671Z,8.48
2022-08-28T02:26:34.606Z,9.50
2022-08-28T02:29:22.090Z,9.60
2022-08-28T02:32:11.578Z,9.30
2022-08-28T02:34:59.016Z,9.65
2022-08-28T02:37:47.777Z,10.40
2022-08-28T02:40:37.140Z,8.90
2022-08-28T02:43:24.599Z,9.65
2022-08-28T02:46:11.779Z,9.10
2022-08-28T02:49:00.547Z,8.05
2022-08-28T02:51:48.037Z,7.85
2022-08-28T02:54:37.146Z,7.70
2022-08-28T02:57:24.494Z,7.72
2022-08-28T03:00:14.596Z,7.35
2022-08-28T03:03:02.001Z,7.07
2022-08-28T03:05:50.725Z,7.20
2022-08-28T03:08:38.181Z,5.95
2022-08-28T03:11:25.924Z,6.15
2022-08-28T03:14:13.303Z,5.78
2022-08-28T03:17:01.338Z,5.85
2022-08-28T03:19:50.013Z,5.22
2022-08-28T03:22:56.483Z,5.97
2022-08-28T03:25:44.773Z,5.35
2022-08-28T03:28:35.640Z,5.32
2022-08-28T03:31:25.939Z,5.30
2022-08-28T03:34:13.330Z,4.93
2022-08-28T03:37:01.245Z,4.55
2022-08-28T03:39:49.891Z,4.78
2022-08-28T03:42:37.525Z,4.80
2022-08-28T03:45:25.651Z,4.35
2022-08-28T03:48:14.021Z,4.65
2022-08-28T03:51:02.291Z,4.60
2022-08-28T03:53:50.131Z,4.30
2022-08-28T03:56:42.238Z,4.97
2022-08-28T03:59:29.831Z,4.40
2022-08-28T04:02:21.077Z,4.25
2022-08-28T04:05:09.526Z,4.32
2022-08-28T04:07:56.802Z,4.60
2022-08-28T04:10:44.591Z,4.28
2022-08-28T04:13:33.730Z,4.38
2022-08-28T04:16:20.821Z,3.80
2022-08-28T04:19:07.936Z,4.05
2022-08-28T04:21:55.293Z,4.20
2022-08-28T04:24:42.607Z,3.30
2022-08-28T04:27:30.131Z,3.17
2022-08-28T04:30:19.226Z,3.45
2022-08-28T04:33:07.112Z,3.45
2022-08-28T04:35:55.518Z,3.50
2022-08-28T04:38:44.209Z,3.13
2022-08-28T04:41:31.411Z,3.42
2022-08-28T04:44:19.083Z,3.65
2022-08-28T04:47:07.835Z,3.40
2022-08-28T04:49:56.490Z,3.00
2022-08-28T04:52:44.138Z,3.17
2022-08-28T04:55:48.548Z,3.72
2022-08-28T04:58:39.907Z,3.40
2022-08-28T05:01:27.330Z,2.85
2022-08-28T05:04:16.118Z,3.40
2022-08-28T05:07:03.607Z,3.30
2022-08-28T05:09:53.997Z,3.00
2022-08-28T05:12:41.345Z,3.63
2022-08-28T05:15:28.781Z,3.17
2022-08-28T05:18:18.416Z,3.17
2022-08-28T05:21:14.443Z,3.30
2022-08-28T05:24:01.908Z,3.08
2022-08-28T05:26:49.083Z,2.97
2022-08-28T05:29:36.513Z,3.17
2022-08-28T05:32:23.726Z,3.03
2022-08-28T05:35:11.054Z,3.00
2022-08-28T05:37:59.410Z,2.92
2022-08-28T05:40:50.142Z,3.17
2022-08-28T05:43:37.775Z,3.20
2022-08-28T05:46:25.463Z,3.40
2022-08-28T05:49:13.494Z,3.00
2022-08-28T05:52:00.662Z,2.58
2022-08-28T05:54:49.413Z,2.78
2022-08-28T05:57:36.851Z,3.47
2022-08-28T06:00:24.238Z,2.90
2022-08-28T06:03:11.537Z,3.17
2022-08-28T06:05:59.892Z,3.45
2022-08-28T06:08:56.356Z,3.22
2022-08-28T06:11:48.827Z,3.40
2022-08-28T06:14:37.153Z,3.10
2022-08-28T06:17:24.929Z,4.03
2022-08-28T06:20:13.622Z,3.33
2022-08-28T06:23:00.911Z,3.22
2022-08-28T06:25:50.414Z,3.00
2022-08-28T06:28:39.089Z,3.42
2022-08-28T06:31:29.757Z,3.17
2022-08-28T06:34:20.506Z,3.88
2022-08-28T06:37:08.231Z,3.67
2022-08-28T06:39:55.831Z,3.47
2022-08-28T06:42:42.882Z,3.35
2022-08-28T06:45:31.759Z,3.22
2022-08-28T06:48:20.969Z,4.07
2022-08-28T06:51:09.375Z,3.72
2022-08-28T06:53:57.934Z,4.03
2022-08-28T06:56:46.235Z,4.00
2022-08-28T06:59:33.609Z,5.00
2022-08-28T07:02:22.517Z,3.53
2022-08-28T07:05:15.580Z,3.53
2022-08-28T07:08:02.850Z,3.95
2022-08-28T07:10:50.241Z,3.90
2022-08-28T07:13:37.514Z,3.20
2022-08-28T07:16:26.755Z,3.92
2022-08-28T07:19:15.565Z,3.65
2022-08-28T07:22:03.232Z,3.55
2022-08-28T07:24:50.231Z,3.75
2022-08-28T07:27:37.665Z,3.47
2022-08-28T07:30:24.815Z,3.60
2022-08-28T07:33:12.130Z,3.33
2022-08-28T07:36:01.560Z,3.47
2022-08-28T07:38:48.860Z,3.20
2022-08-28T07:41:42.400Z,3.35
2022-08-28T07:44:46.776Z,2.85
2022-08-28T07:47:38.590Z,3.20
2022-08-28T07:50:25.849Z,3.13
2022-08-28T07:53:15.452Z,3.22
2022-08-28T07:56:03.067Z,3.53
2022-08-28T07:58:50.221Z,2.88
2022-08-28T08:01:40.070Z,3.40
2022-08-28T08:04:27.111Z,3.70
2022-08-28T08:07:14.497Z,3.10
2022-08-28T08:10:03.241Z,3.40
2022-08-28T08:12:50.832Z,3.78
2022-08-28T08:15:39.347Z,3.40
2022-08-28T08:18:26.613Z,3.20
2022-08-28T08:21:16.281Z,3.30
2022-08-28T08:24:04.042Z,2.75
2022-08-28T08:26:59.542Z,3.50
2022-08-28T08:29:48.782Z,3.33
2022-08-28T08:32:38.967Z,3.33
2022-08-28T08:35:26.176Z,3.47
2022-08-28T08:38:13.304Z,3.45
2022-08-28T08:41:02.207Z,3.63
2022-08-28T08:43:57.421Z,3.90
2022-08-28T08:46:50.742Z,3.88
2022-08-28T08:49:42.889Z,3.70
2022-08-28T08:52:38.617Z,3.67
2022-08-28T08:55:28.781Z,3.40
2022-08-28T08:58:25.339Z,3.47
2022-08-28T09:01:21.284Z,3.58
2022-08-28T09:04:24.661Z,3.65
2022-08-28T09:07:17.559Z,3.65
2022-08-28T09:10:06.548Z,3.67
2022-08-28T09:13:01.317Z,3.70
2022-08-28T09:15:50.861Z,3.92
2022-08-28T09:18:39.685Z,3.60
2022-08-28T09:21:30.101Z,4.25
2022-08-28T09:24:23.722Z,4.88
2022-08-28T09:27:24.635Z,3.50
2022-08-28T09:30:12.875Z,4.75
2022-08-28T09:33:01.856Z,3.60
2022-08-28T09:35:50.258Z,3.50
2022-08-28T09:38:39.015Z,3.92
2022-08-28T09:41:43.510Z,4.05
2022-08-28T09:44:31.479Z,4.45
2022-08-28T09:47:45.949Z,3.95
2022-08-28T09:50:36.415Z,3.42
2022-08-28T09:53:25.720Z,3.85
2022-08-28T09:56:17.837Z,3.63
2022-08-28T09:59:08.868Z,3.95
2022-08-28T10:02:13.103Z,3.85
2022-08-28T10:05:05.383Z,4.00
2022-08-28T10:07:57.785Z,4.25
2022-08-28T10:10:51.713Z,4.57
2022-08-28T10:13:47.467Z,3.45
2022-08-28T10:16:43.947Z,4.03
2022-08-28T10:19:42.674Z,3.83
2022-08-28T10:22:40.227Z,4.55
2022-08-28T10:25:35.388Z,3.88
2022-08-28T10:28:39.622Z,4.25
2022-08-28T10:31:37.175Z,4.15
2022-08-28T10:34:37.764Z,4.30
2022-08-28T10:37:35.039Z,4.28
2022-08-28T10:40:27.177Z,4.43
2022-08-28T10:43:19.285Z,4.60
2022-08-28T10:46:13.868Z,4.30
2022-08-28T10:49:04.823Z,4.43
2022-08-28T10:51:57.102Z,4.57
2022-08-28T10:54:50.705Z,4.03
2022-08-28T10:57:42.737Z,4.43
2022-08-28T11:00:30.678Z,4.50
2022-08-28T11:03:33.871Z,4.25
2022-08-28T11:06:29.155Z,4.65
2022-08-28T11:09:27.769Z,4.82
2022-08-28T11:12:38.254Z,5.00
2022-08-28T11:15:46.530Z,4.65
2022-08-28T11:19:10.318Z,5.13
2022-08-28T11:22:04.477Z,4.35
2022-08-28T11:25:04.381Z,4.82
2022-08-28T11:28:40.571Z,5.70
2022-08-28T11:31:32.353Z,5.40
2022-08-28T11:34:53.221Z,4.53
2022-08-28T11:37:44.571Z,4.97
2022-08-28T11:40:56.787Z,5.22
2022-08-28T11:43:45.765Z,5.45
2022-08-28T11:46:34.966Z,5.35
2022-08-28T11:49:42.379Z,4.95
2022-08-28T11:52:47.079Z,4.70
2022-08-28T11:55:58.219Z,4.82
2022-08-28T11:58:52.535Z,5.32
2022-08-28T12:01:40.256Z,4.95
2022-08-28T12:04:42.760Z,5.05
2022-08-28T12:07:36.626Z,5.25
2022-08-28T12:10:57.686Z,5.35
2022-08-28T12:13:51.235Z,5.25
2022-08-28T12:17:12.046Z,5.18
2022-08-28T12:20:09.099Z,4.90
2022-08-28T12:22:59.317Z,4.63
2022-08-28T12:25:46.595Z,5.10
2022-08-28T12:28:44.862Z,5.68
2022-08-28T12:32:14.945Z,5.20
2022-08-28T12:35:16.100Z,4.97
2022-08-28T12:38:05.370Z,5.47
2022-08-28T12:40:53.360Z,4.88
2022-08-28T12:43:46.638Z,4.82
2022-08-28T12:46:43.064Z,4.10
2022-08-28T12:49:33.713Z,4.50
2022-08-28T12:52:24.295Z,5.63
2022-08-28T12:55:11.758Z,4.85
2022-08-28T12:57:59.062Z,4.57
2022-08-28T13:00:53.931Z,4.40
2022-08-28T13:03:46.324Z,4.20
2022-08-28T13:06:37.243Z,4.70
2022-08-28T13:09:28.225Z,4.40
2022-08-28T13:12:21.722Z,3.78
2022-08-28T13:15:44.792Z,3.50
2022-08-28T13:18:44.013Z,4.40
2022-08-28T13:21:35.203Z,4.13
2022-08-28T13:24:45.646Z,4.50
2022-08-28T13:27:33.266Z,4.50
2022-08-28T13:30:24.888Z,4.53
2022-08-28T13:33:23.575Z,9.10
2022-08-28T13:36:24.760Z,4.13
2022-08-28T13:39:13.286Z,4.15
2022-08-28T13:42:07.042Z,3.65
2022-08-28T13:44:56.601Z,3.40
2022-08-28T13:47:44.107Z,3.33
2022-08-28T13:50:33.406Z,4.15
2022-08-28T13:53:21.658Z,3.25
2022-08-28T13:56:09.247Z,3.53
2022-08-28T13:58:57.900Z,4.10
2022-08-28T14:02:03.129Z,3.70
2022-08-28T14:04:50.182Z,3.30
2022-08-28T14:07:39.460Z,3.05
2022-08-28T14:10:27.464Z,3.10
2022-08-28T14:13:15.280Z,3.50
2022-08-28T14:16:06.276Z,3.13
2022-08-28T14:18:53.621Z,3.20
2022-08-28T14:21:42.297Z,3.40
2022-08-28T14:24:31.000Z,3.50
2022-08-28T14:27:18.778Z,3.03
2022-08-28T14:30:08.218Z,3.58
2022-08-28T14:32:55.585Z,3.10
2022-08-28T14:35:43.295Z,3.20
2022-08-28T14:38:30.490Z,3.00
2022-08-28T14:41:19.083Z,3.45
2022-08-28T14:44:06.549Z,2.72
2022-08-28T14:46:57.040Z,3.70
2022-08-28T14:49:44.560Z,3.05
2022-08-28T14:52:31.682Z,3.40
2022-08-28T14:55:18.990Z,3.35
2022-08-28T14:58:07.709Z,3.72
2022-08-28T15:00:55.283Z,3.42
2022-08-28T15:03:42.596Z,3.03
2022-08-28T15:06:31.285Z,3.22
2022-08-28T15:09:19.043Z,3.20
2022-08-28T15:12:07.007Z,3.33
2022-08-28T15:14:57.104Z,3.17
2022-08-28T15:17:44.364Z,3.00
2022-08-28T15:20:31.649Z,3.30
2022-08-28T15:23:18.914Z,2.88
2022-08-28T15:26:06.485Z,3.28
2022-08-28T15:28:55.813Z,3.30
2022-08-28T15:31:47.262Z,2.75
2022-08-28T15:34:34.585Z,2.95
2022-08-28T15:37:21.888Z,3.28
2022-08-28T15:40:27.845Z,2.97
2022-08-28T15:43:14.985Z,3.42
2022-08-28T15:46:02.413Z,2.78
2022-08-28T15:48:51.245Z,3.10
2022-08-28T15:51:41.559Z,3.25
2022-08-28T15:54:28.921Z,3.38
2022-08-28T15:57:16.300Z,2.88
2022-08-28T16:00:08.549Z,3.05
2022-08-28T16:03:00.787Z,2.70
2022-08-28T16:05:49.531Z,2.97
2022-08-28T16:08:37.245Z,3.05
2022-08-28T16:11:24.519Z,3.20
2022-08-28T16:14:12.604Z,2.50
2022-08-28T16:16:59.883Z,2.55
2022-08-28T16:19:53.574Z,3.28
2022-08-28T16:22:42.371Z,2.63
2022-08-28T16:25:29.615Z,3.25
2022-08-28T16:28:17.042Z,3.95
2022-08-28T16:31:07.371Z,3.05
2022-08-28T16:33:54.729Z,2.72
2022-08-28T16:36:42.052Z,2.22
2022-08-28T16:39:30.840Z,3.17
2022-08-28T16:42:18.182Z,2.53
2022-08-28T16:45:07.053Z,3.05
2022-08-28T16:47:54.633Z,2.47
2022-08-28T16:50:42.967Z,2.78
2022-08-28T16:53:31.127Z,3.08
2022-08-28T16:56:19.833Z,2.42
2022-08-28T16:59:10.372Z,2.80
2022-08-28T17:01:57.699Z,3.03
2022-08-28T17:04:45.153Z,2.58
2022-08-28T17:07:32.226Z,6.40
2022-08-28T17:10:22.791Z,4.32
2022-08-28T17:13:11.373Z,4.22
2022-08-28T17:15:58.454Z,2.40
2022-08-28T17:18:47.433Z,2.85
2022-08-28T17:21:53.973Z,2.47
2022-08-28T17:24:41.122Z,2.55
2022-08-28T17:27:29.035Z,2.25
2022-08-28T17:30:18.942Z,2.50
2022-08-28T17:33:07.089Z,2.50
2022-08-28T17:35:58.190Z,2.72
2022-08-28T17:38:47.403Z,2.67
2022-08-28T17:41:35.401Z,2.55
2022-08-28T17:44:22.351Z,2.15
2022-08-28T17:47:11.866Z,2.05
2022-08-28T17:49:59.637Z,2.30
2022-08-28T17:52:47.127Z,2.15
2022-08-28T17:55:34.623Z,2.40
2022-08-28T17:58:21.896Z,2.30
2022-08-28T18:01:09.331Z,2.13
2022-08-28T18:03:58.139Z,2.50
2022-08-28T18:06:46.326Z,2.42
2022-08-28T18:09:33.607Z,2.05
2022-08-28T18:12:20.881Z,1.77
2022-08-28T18:15:10.333Z,2.90
2022-08-28T18:17:57.822Z,2.03
2022-08-28T18:20:46.231Z,2.47
2022-08-28T18:23:33.651Z,2.15
2022-08-28T18:26:21.318Z,2.40
2022-08-28T18:29:08.781Z,2.53
2022-08-28T18:31:56.491Z,2.42
2022-08-28T18:34:43.724Z,1.98
2022-08-28T18:37:32.263Z,2.33
2022-08-28T18:40:19.818Z,2.08
2022-08-28T18:43:06.976Z,2.50
2022-08-28T18:45:54.700Z,2.28
2022-08-28T18:48:42.689Z,2.60
2022-08-28T18:51:32.240Z,2.58
2022-08-28T18:54:22.003Z,2.40
2022-08-28T18:57:10.509Z,2.90
2022-08-28T18:59:59.214Z,2.60
2022-08-28T19:02:46.666Z,2.05
2022-08-28T19:05:35.882Z,2.70
2022-08-28T19:08:23.641Z,2.85
2022-08-28T19:11:14.211Z,2.78
2022-08-28T19:14:03.912Z,2.40
2022-08-28T19:16:51.623Z,2.20
2022-08-28T19:19:38.870Z,2.20
2022-08-28T19:22:26.370Z,2.50
2022-08-28T19:25:27.530Z,2.30
2022-08-28T19:28:17.702Z,2.35
2022-08-28T19:31:05.397Z,2.00
2022-08-28T19:33:52.816Z,2.40
2022-08-28T19:36:41.705Z,2.30
2022-08-28T19:39:29.272Z,2.60
2022-08-28T19:42:17.078Z,2.30
2022-08-28T19:45:08.047Z,2.15
2022-08-28T19:47:55.018Z,2.35
2022-08-28T19:50:42.673Z,2.53
2022-08-28T19:53:29.722Z,2.15
2022-08-28T19:56:17.132Z,2.38
2022-08-28T19:59:07.421Z,2.40
2022-08-28T20:01:56.035Z,2.70
2022-08-28T20:04:43.900Z,2.17
2022-08-28T20:07:31.036Z,2.40
2022-08-28T20:10:19.653Z,2.42
2022-08-28T20:13:06.998Z,2.65
2022-08-28T20:15:54.542Z,2.58
2022-08-28T20:18:43.337Z,2.30
2022-08-28T20:21:37.246Z,2.60
2022-08-28T20:24:25.443Z,2.40
2022-08-28T20:27:13.035Z,2.38
2022-08-28T20:30:10.390Z,2.20
2022-08-28T20:32:58.922Z,2.22
2022-08-28T20:35:47.714Z,2.90
2022-08-28T20:38:35.382Z,2.28
2022-08-28T20:41:22.699Z,2.28
2022-08-28T20:44:12.835Z,2.65
2022-08-28T20:47:00.069Z,2.40
2022-08-28T20:49:47.586Z,2.80
2022-08-28T20:52:36.113Z,2.63
2022-08-28T20:55:23.685Z,2.30
2022-08-28T20:58:12.648Z,2.75
2022-08-28T21:01:00.294Z,2.95
2022-08-28T21:03:47.408Z,2.72
2022-08-28T21:06:34.727Z,2.75
2022-08-28T21:09:41.036Z,2.65
2022-08-28T21:12:30.745Z,3.03
2022-08-28T21:15:18.110Z,2.63
2022-08-28T21:18:05.445Z,2.35
2022-08-28T21:20:52.787Z,2.55
2022-08-28T21:23:42.216Z,2.83
2022-08-28T21:26:30.792Z,2.50
2022-08-28T21:29:20.802Z,2.33
2022-08-28T21:32:09.259Z,2.33
2022-08-28T21:34:56.854Z,2.80
2022-08-28T21:37:44.419Z,2.50
2022-08-28T21:40:32.015Z,2.40
2022-08-28T21:43:20.875Z,2.60
2022-08-28T21:46:09.193Z,2.45
2022-08-28T21:48:57.137Z,2.60
2022-08-28T21:51:44.415Z,2.10
2022-08-28T21:54:31.696Z,2.42
2022-08-28T21:57:19.040Z,2.55
2022-08-28T22:00:11.858Z,2.47
2022-08-28T22:02:59.262Z,2.40
2022-08-28T22:05:47.921Z,2.53
2022-08-28T22:08:35.010Z,2.33
2022-08-28T22:11:25.228Z,2.40
2022-08-28T22:14:12.747Z,2.72
2022-08-28T22:17:01.351Z,3.10
2022-08-28T22:19:48.703Z,2.70
2022-08-28T22:22:53.369Z,2.30
2022-08-28T22:25:41.982Z,2.95
2022-08-28T22:28:29.269Z,2.65
2022-08-28T22:31:16.832Z,2.60
2022-08-28T22:34:07.000Z,3.05
2022-08-28T22:36:54.401Z,3.05
2022-08-28T22:39:42.383Z,2.42
2022-08-28T22:42:29.913Z,3.13
2022-08-28T22:45:17.367Z,3.40
2022-08-28T22:48:05.205Z,2.75
2022-08-28T22:51:03.021Z,2.78
2022-08-28T22:53:50.421Z,2.25
2022-08-28T22:56:37.824Z,2.80
2022-08-28T22:59:27.383Z,2.67
2022-08-28T23:02:14.496Z,3.20
2022-08-28T23:05:02.072Z,2.38
2022-08-28T23:07:50.727Z,2.47
2022-08-28T23:10:57.989Z,2.60
2022-08-28T23:13:44.736Z,2.67
2022-08-28T23:16:32.401Z,3.55
2022-08-28T23:19:22.986Z,3.10
2022-08-28T23:22:10.358Z,3.05
2022-08-28T23:24:58.646Z,2.60
2022-08-28T23:27:46.346Z,3.22
2022-08-28T23:30:33.632Z,3.47
2022-08-28T23:33:23.521Z,2.53
2022-08-28T23:36:11.727Z,2.90
2022-08-28T23:38:59.352Z,3.47
2022-08-28T23:41:48.702Z,2.40
2022-08-28T23:44:36.454Z,3.53
2022-08-28T23:47:24.363Z,2.40
2022-08-28T23:50:15.426Z,2.58
2022-08-28T23:53:03.888Z,2.88
2022-08-28T23:55:51.429Z,2.90
2022-08-28T23:58:40.209Z,3.03
